Flight Track Log - Related Links

Times and Time Zones

All times are in EST time to prevent confusion due to time zone crossing. See the EJA922 flight status page for this flight to view local times or setup timezone preferences in your user account.

Time Position Orientation Groundspeed Altitude Reporting Facility
EST Latitude Longitude Course Direction KTS MPH feet Rate Location/Type
Sat 04:20:35 PM 33.6439 -117.8881 188° South 186 214 2,100  Level Los Angeles Center
Sat 04:21:37 PM 33.5792 -117.8986 188° South 229 264 5,800 3,242 Climbing Los Angeles Center
Sat 04:22:39 PM 33.5350 -117.9622 230° Southwest 273 314 8,800 2,688 Climbing Los Angeles Center
Sat 04:23:42 PM 33.5508 -118.0475 283° West 263 303 11,400 2,784 Climbing Los Angeles Center
Sat 04:24:44 PM 33.6261 -118.1208 321° Northwest 324 373 14,600 2,758 Climbing Los Angeles Center
Sat 04:25:46 PM 33.7172 -118.0736 23° Northeast 370 426 17,100 2,129 Climbing Los Angeles Center
Sat 04:26:48 PM 33.8064 -118.0033 33° Northeast 383 441 19,000 1,839 Climbing Los Angeles Center
Sat 04:27:50 PM 33.9036 -117.9269 33° Northeast 416 479 20,900 1,839 Climbing Los Angeles Center
Sat 04:28:52 PM 34.0033 -117.8469 34° Northeast 430 495 22,800 2,129 Climbing Los Angeles Center
Sat 04:29:54 PM 34.1211 -117.7328 39° Northeast 451 519 25,300 2,032 Climbing Los Angeles Center
Sat 04:30:56 PM 34.2072 -117.6139 49° Northeast 467 537 27,000 1,645 Climbing Los Angeles Center
Sat 04:31:58 PM 34.2978 -117.4922 48° Northeast 480 552 28,700 1,645 Climbing Los Angeles Center
Sat 04:33:00 PM 34.3931 -117.3600 49° Northeast 495 570 30,400 1,887 Climbing Los Angeles Center
Sat 04:34:02 PM 34.4858 -117.2328 48° Northeast 504 580 32,600 1,403 Climbing Los Angeles Center
Sat 04:35:04 PM 34.5800 -117.1033 49° Northeast 512 589 33,300 823 Climbing Los Angeles Center
Sat 04:36:06 PM 34.6786 -116.9683 48° Northeast 532 612 34,300 971 Climbing Los Angeles Center
Sat 04:37:20 PM 34.7978 -116.8014 49° Northeast 546 628 35,500 1,147 Climbing Los Angeles Center
Sat 04:38:22 PM 34.9178 -116.6353 49° Northeast 548 631 36,900 1,258 Climbing Los Angeles Center
Sat 04:39:24 PM 35.0225 -116.4989 47° Northeast 551 634 38,100 1,104 Climbing Los Angeles Center
Sat 04:40:27 PM 35.1272 -116.3694 45° Northeast 545 627 39,200 1,113 Climbing Los Angeles Center
Sat 04:41:28 PM 35.2297 -116.2414 46° Northeast 537 618 40,400 878 Climbing Los Angeles Center
Sat 04:42:30 PM 35.3511 -116.0867 46° Northeast 529 609 41,000 290 Climbing Los Angeles Center
Sat 04:43:32 PM 35.4547 -115.9547 46° Northeast 535 616 41,000  Level Los Angeles Center
Sat 04:44:34 PM 35.5572 -115.8292 45° Northeast 526 605 41,000  Level Los Angeles Center
Sat 04:45:36 PM 35.6569 -115.7033 46° Northeast 517 595 41,000  Level Los Angeles Center
Sat 04:46:38 PM 35.7561 -115.5769 46° Northeast 516 594 41,000  Level Los Angeles Center
Sat 04:47:40 PM 35.8731 -115.4258 46° Northeast 513 590 41,000  Level Los Angeles Center
Sat 04:48:54 PM 35.9900 -115.2750 46° Northeast 513 590 41,000  Level Los Angeles Center
Sat 04:49:56 PM 36.0794 -115.1442 50° Northeast 506 582 41,000  Level Los Angeles Center
Sat 04:50:58 PM 36.1344 -114.9783 68° East 525 604 41,000  Level Los Angeles Center
Sat 04:52:00 PM 36.1867 -114.8097 69° East 528 608 41,000  Level Los Angeles Center
Sat 04:53:02 PM 36.2483 -114.6064 69° East 528 608 41,000  Level Los Angeles Center
Sat 04:54:04 PM 36.2997 -114.4375 69° East 526 605 41,000  Level Los Angeles Center
Sat 04:55:06 PM 36.3503 -114.2672 70° East 528 608 41,000  Level Los Angeles Center
Sat 04:56:08 PM 36.4006 -114.0975 70° East 525 604 41,000  Level Los Angeles Center
Sat 04:57:10 PM 36.4522 -113.9286 69° East 523 602 41,000  Level Los Angeles Center
Sat 04:58:12 PM 36.5114 -113.7286 70° East 526 605 41,000  Level Los Angeles Center
Sat 04:59:14 PM 36.5619 -113.5592 70° East 525 604 41,000  Level Los Angeles Center
Sat 05:00:16 PM 36.6114 -113.3900 70° East 523 602 41,000  Level Los Angeles Center
Sat 05:01:18 PM 36.6608 -113.2206 70° East 523 602 41,000  Level Los Angeles Center
Sat 05:02:20 PM 36.7094 -113.0506 70° East 524 603 41,000  Level Los Angeles Center
Sat 05:03:22 PM 36.7581 -112.8828 70° East 520 598 41,000  Level Los Angeles Center
Sat 05:04:24 PM 36.8158 -112.6786 70° East 522 601 41,000  Level Los Angeles Center
Sat 05:05:26 PM 36.8639 -112.5089 70° East 522 601 41,000  Level Los Angeles Center
Sat 05:06:28 PM 36.9122 -112.3394 70° East 521 600 41,000  Level Los Angeles Center
Sat 05:07:30 PM 36.9600 -112.1681 71° East 525 604 41,000  Level Los Angeles Center
Sat 05:08:32 PM 37.0081 -111.9969 71° East 525 604 41,000  Level Los Angeles Center
Sat 05:09:34 PM 37.0647 -111.7903 71° East 527 606 41,000  Level Los Angeles Center
Sat 05:10:36 PM 37.1117 -111.6178 71° East 527 606 41,000  Level Los Angeles Center
Sat 05:11:38 PM 37.1594 -111.4444 71° East 529 609 41,000  Level Los Angeles Center
Sat 05:12:40 PM 37.2064 -111.2706 71° East 528 608 41,000  Level Los Angeles Center
Sat 05:13:59 PM 37.2969 -111.0464 63° Northeast 520 598 41,000  Level Denver Center
Sat 05:15:00 PM 37.3731 -110.8958 58° Northeast 513 590 41,000  Level Denver Center
Sat 05:16:01 PM 37.4500 -110.7450 57° Northeast 513 590 41,000  Level Denver Center
Sat 05:17:03 PM 37.5275 -110.5933 57° Northeast 515 593 41,000  Level Denver Center
Sat 05:18:04 PM 37.6036 -110.4406 58° Northeast 508 585 41,000  Level Denver Center
Sat 05:19:05 PM 37.6894 -110.2697 58° Northeast 513 590 41,000  Level Denver Center
Sat 05:20:06 PM 37.7619 -110.1236 58° Northeast 512 589 41,000  Level Denver Center
Sat 05:21:08 PM 37.8347 -109.9764 58° Northeast 513 590 41,000  Level Denver Center
Sat 05:22:09 PM 37.9189 -109.8047 58° Northeast 514 592 41,000  Level Denver Center
Sat 05:23:10 PM 37.9908 -109.6592 58° Northeast 510 587 41,000 -492 Level Denver Center
Sat 05:24:11 PM 38.0556 -109.5289 58° Northeast 514 592 40,000 -1,415 Descending Denver Center
Sat 05:25:13 PM 38.1525 -109.3256 59° Northeast 526 605 38,100 -1,463 Descending Denver Center
Sat 05:26:14 PM 38.2278 -109.1708 58° Northeast 536 617 37,000 -541 Descending Denver Center
Sat 05:27:15 PM 38.3011 -109.0158 59° Northeast 535 616 37,000  Level Denver Center
Sat 05:28:17 PM 38.3881 -108.8361 58° Northeast 536 617 37,000 -244 Level Denver Center
Sat 05:29:18 PM 38.4617 -108.6836 58° Northeast 529 609 36,500 -1,328 Descending Denver Center
Sat 05:30:19 PM 38.5458 -108.5036 59° Northeast 529 609 34,300 -2,016 Descending Denver Center
Sat 05:31:20 PM 38.6169 -108.3544 59° Northeast 518 596 32,400 -1,854 Descending Denver Center
Sat 05:32:22 PM 38.6856 -108.2061 59° Northeast 510 587 30,500 -2,341 Descending Denver Center
Sat 05:33:23 PM 38.7306 -108.0103 74° East 512 589 27,600 -2,361 Descending Denver Center
Sat 05:34:24 PM 38.7667 -107.8431 74° East 510 587 25,700 -2,049 Descending Denver Center
Sat 05:35:26 PM 38.8075 -107.6569 74° East 496 571 23,400 -2,049 Descending Denver Center
Sat 05:36:27 PM 38.8767 -107.5350 54° Northeast 462 532 21,500 -1,672 Descending Denver Center
Sat 05:37:28 PM 38.9706 -107.4414 38° Northeast 447 514 20,000 -732 Descending Denver Center
Sat 05:38:30 PM 39.0769 -107.3325 38° Northeast 440 506 20,000  Level Denver Center
Sat 05:39:31 PM 39.1636 -107.2347 41° Northeast 436 502 20,000 -393 Level Denver Center
Sat 05:40:32 PM 39.2417 -107.1644 35° Northeast 354 407 19,200 -927 Descending Denver Center
Sat 05:41:34 PM 39.3153 -107.1261 22° Northeast 289 333 18,100 -1,317 Descending Denver Center
Sat 05:42:35 PM 39.3894 -107.0903 20° North 282 325 16,500 -1,721 Descending Denver Center
Sat 05:43:36 PM 39.4353 -107.0061 55° Northeast 298 343 14,600 -1,610 Descending Denver Center
Sat 05:44:38 PM 39.3975 -106.9431 128° Southeast 264 304 13,200 -1,561 Descending Denver Center
Sat 05:45:39 PM 39.3422 -106.9108 156° South 198 228 11,400 -1,902 Descending Denver Center
Sat 05:46:41 PM 39.2950 -106.9014 171° South 178 205 9,300 -1,366 Descending Denver Center
Sat 05:47:42 PM 39.2586 -106.8822 158° South 172 198 8,600 -689 Descending Denver Center

Login

Don't have an account? Register now (free) for customized features, flight alerts, and more!